createdAt,value
2016-10-06T00:00:25.021Z,99.64
2016-10-06T00:01:25.002Z,99.44
2016-10-06T00:02:24.988Z,99.54
2016-10-06T00:03:24.971Z,99.54
2016-10-06T00:04:25.273Z,99.35
2016-10-06T00:05:25.253Z,99.73
2016-10-06T00:06:24.928Z,99.44
2016-10-06T00:07:24.907Z,98.69
2016-10-06T00:08:24.892Z,99.16
2016-10-06T00:09:24.875Z,99.07
2016-10-06T00:10:24.871Z,98.97
2016-10-06T00:11:24.846Z,99.26
2016-10-06T00:12:24.828Z,98.88
2016-10-06T00:13:24.811Z,98.31
2016-10-06T00:14:24.794Z,98.4
2016-10-06T00:15:24.777Z,98.31
2016-10-06T00:16:24.762Z,98.59
2016-10-06T00:17:24.749Z,98.88
2016-10-06T00:18:24.727Z,98.4
2016-10-06T00:19:24.744Z,98.12
2016-10-06T00:20:24.694Z,97.92
2016-10-06T00:21:24.679Z,97.83
2016-10-06T00:22:24.681Z,97.92
2016-10-06T00:23:24.648Z,98.17
2016-10-06T00:24:24.635Z,97.92
2016-10-06T00:25:24.615Z,98.02
2016-10-06T00:26:24.599Z,97.92
2016-10-06T00:27:24.584Z,98.59
2016-10-06T00:28:24.570Z,98.31
2016-10-06T00:29:24.561Z,98.02
2016-10-06T00:30:24.533Z,97.83
2016-10-06T00:31:24.521Z,98.21
2016-10-06T00:32:24.505Z,97.97
2016-10-06T00:33:24.488Z,98.12
2016-10-06T00:34:24.473Z,98.12
2016-10-06T00:35:24.461Z,98.17
2016-10-06T00:36:24.443Z,97.78
2016-10-06T00:37:24.430Z,97.78
2016-10-06T00:38:24.411Z,97.6
2016-10-06T00:39:24.719Z,98.02
2016-10-06T00:40:24.379Z,97.69
2016-10-06T00:41:24.365Z,97.5
2016-10-06T00:42:24.665Z,97.6
2016-10-06T00:43:24.331Z,97.41
2016-10-06T00:44:24.319Z,97.5
2016-10-06T00:45:24.299Z,96.93
2016-10-06T00:46:24.289Z,97.12
2016-10-06T00:47:24.275Z,97.5
2016-10-06T00:48:24.252Z,97.5
2016-10-06T00:49:24.234Z,97.03
2016-10-06T00:50:24.219Z,97.12
2016-10-06T00:51:24.517Z,97.22
2016-10-06T00:52:24.192Z,97.03
2016-10-06T00:53:24.173Z,96.84
2016-10-06T00:54:24.158Z,97.6
2016-10-06T00:55:24.137Z,97.5
2016-10-06T00:56:24.124Z,97.5
2016-10-06T00:57:24.108Z,96.84
2016-10-06T00:58:24.097Z,97.03
2016-10-06T00:59:24.295Z,97.5
2016-10-06T01:00:24.061Z,97.69
2016-10-06T01:01:24.050Z,97.5
2016-10-06T01:02:24.025Z,97.5
2016-10-06T01:03:24.030Z,97.97
2016-10-06T01:04:23.996Z,97.88
2016-10-06T01:05:23.984Z,97.31
2016-10-06T01:06:23.967Z,97.5
2016-10-06T01:07:23.949Z,97.31
2016-10-06T01:08:23.939Z,97.5
2016-10-06T01:09:23.919Z,97.6
2016-10-06T01:10:23.905Z,97.5
2016-10-06T01:11:23.885Z,97.6
2016-10-06T01:12:23.878Z,97.6
2016-10-06T01:13:23.857Z,97.88
2016-10-06T01:14:23.842Z,97.88
2016-10-06T01:15:23.876Z,97.5
2016-10-06T01:16:23.810Z,97.31
2016-10-06T01:17:23.794Z,97.78
2016-10-06T01:18:23.783Z,97.69
2016-10-06T01:19:23.779Z,97.5
2016-10-06T01:20:23.748Z,97.78
2016-10-06T01:21:23.732Z,97.78
2016-10-06T01:22:23.717Z,96.93
2016-10-06T01:23:24.015Z,97.6
2016-10-06T01:24:23.687Z,97.5
2016-10-06T01:25:23.672Z,97.6
2016-10-06T01:26:23.652Z,97.5
2016-10-06T01:27:23.642Z,98.07
2016-10-06T01:28:23.623Z,97.97
2016-10-06T01:29:23.609Z,98.17
2016-10-06T01:30:23.905Z,98.07
2016-10-06T01:31:23.579Z,98.07
2016-10-06T01:32:23.560Z,97.78
2016-10-06T01:33:23.542Z,98.26
2016-10-06T01:34:23.528Z,98.26
2016-10-06T01:35:23.511Z,98.26
2016-10-06T01:36:23.493Z,98.26
2016-10-06T01:37:23.482Z,98.07
2016-10-06T01:38:23.466Z,98.26
2016-10-06T01:39:23.450Z,98.07
2016-10-06T01:40:23.434Z,98.4
2016-10-06T01:41:23.416Z,98.59
2016-10-06T01:42:23.400Z,98.69
2016-10-06T01:43:23.385Z,98.88
2016-10-06T01:44:23.375Z,99.26
2016-10-06T01:45:23.354Z,98.59
2016-10-06T01:46:23.338Z,98.79
2016-10-06T01:47:23.318Z,98.79
2016-10-06T01:48:23.306Z,99.26
2016-10-06T01:49:23.290Z,99.16
2016-10-06T01:50:23.279Z,99.83
2016-10-06T01:51:23.257Z,99.73
2016-10-06T01:52:23.240Z,99.44
2016-10-06T01:53:23.229Z,99.92
2016-10-06T01:54:23.212Z,99.92
2016-10-06T01:55:23.198Z,99.99
2016-10-06T01:56:23.179Z,99.26
2016-10-06T01:57:23.163Z,98.69
2016-10-06T01:58:23.145Z,99.44
2016-10-06T01:59:23.133Z,99.73
2016-10-06T02:00:23.110Z,99.73
2016-10-06T02:01:23.412Z,99.92
2016-10-06T02:02:23.098Z,99.54
2016-10-06T02:03:23.066Z,99.73
2016-10-06T02:04:23.047Z,99.99
2016-10-06T02:05:23.038Z,99.92
2016-10-06T02:06:23.017Z,99.92
2016-10-06T02:07:22.999Z,99.83
2016-10-06T02:08:23.312Z,99.83
2016-10-06T02:09:22.967Z,99.73
2016-10-06T02:10:22.952Z,99.92
2016-10-06T02:11:22.953Z,99.73
2016-10-06T02:12:22.921Z,99.99
2016-10-06T02:13:22.903Z,99.92
2016-10-06T02:14:22.888Z,99.99
2016-10-06T02:15:22.870Z,99.99
2016-10-06T02:16:22.855Z,99.99
2016-10-06T02:17:22.840Z,99.99
2016-10-06T02:18:23.144Z,99.99
2016-10-06T02:19:22.808Z,99.99
2016-10-06T02:20:22.789Z,99.99
2016-10-06T02:21:22.786Z,99.99
2016-10-06T02:22:22.758Z,99.99
2016-10-06T02:23:22.741Z,99.99
2016-10-06T02:24:22.730Z,99.99
2016-10-06T02:25:22.707Z,99.99
2016-10-06T02:26:22.692Z,99.99
2016-10-06T02:27:22.990Z,99.35
2016-10-06T02:28:22.660Z,99.92
2016-10-06T02:29:22.647Z,99.64
2016-10-06T02:30:22.625Z,98.88
2016-10-06T02:31:22.614Z,99.3
2016-10-06T02:32:22.601Z,99.16
2016-10-06T02:33:22.899Z,99.3
2016-10-06T02:34:22.564Z,99.59
2016-10-06T02:35:22.546Z,99.21
2016-10-06T02:36:22.533Z,99.59
2016-10-06T02:37:22.527Z,99.59
2016-10-06T02:38:22.498Z,99.78
2016-10-06T02:39:22.485Z,98.74
2016-10-06T02:40:22.469Z,99.02
2016-10-06T02:41:22.449Z,98.93
2016-10-06T02:42:22.437Z,98.83
2016-10-06T02:43:22.417Z,98.83
2016-10-06T02:44:22.400Z,98.55
2016-10-06T02:45:22.388Z,99.02
2016-10-06T02:46:22.375Z,99.11
2016-10-06T02:47:22.355Z,99.02
2016-10-06T02:48:22.337Z,99.11
2016-10-06T02:49:22.320Z,99.21
2016-10-06T02:50:22.312Z,99.21
2016-10-06T02:51:22.292Z,98.64
2016-10-06T02:52:22.274Z,98.64
2016-10-06T02:53:22.591Z,98.55
2016-10-06T02:54:22.557Z,99.21
2016-10-06T02:55:22.237Z,98.97
2016-10-06T02:56:22.213Z,99.07
2016-10-06T02:57:22.198Z,99.26
2016-10-06T02:58:22.179Z,99.07
2016-10-06T02:59:22.363Z,99.35
2016-10-06T03:00:22.149Z,98.97
2016-10-06T03:01:22.130Z,99.54
2016-10-06T03:02:22.116Z,99.16
2016-10-06T03:03:22.099Z,99.99
2016-10-06T03:04:22.397Z,99.99
2016-10-06T03:05:22.070Z,99.73
2016-10-06T03:06:22.049Z,99.92
2016-10-06T03:07:22.039Z,99.99
2016-10-06T03:08:22.337Z,99.92
2016-10-06T03:09:22.005Z,99.73
2016-10-06T03:10:21.987Z,99.99
2016-10-06T03:11:21.977Z,99.35
2016-10-06T03:12:21.955Z,99.54
2016-10-06T03:13:21.935Z,99.92
2016-10-06T03:14:21.922Z,99.99
2016-10-06T03:15:21.906Z,99.99
2016-10-06T03:16:21.891Z,99.73
2016-10-06T03:17:21.922Z,99.99
2016-10-06T03:18:21.858Z,99.92
2016-10-06T03:19:21.843Z,99.99
2016-10-06T03:20:21.821Z,99.99
2016-10-06T03:21:21.810Z,99.99
2016-10-06T03:22:21.796Z,99.99
2016-10-06T03:23:21.789Z,99.99
2016-10-06T03:24:21.759Z,99.99
2016-10-06T03:25:21.740Z,99.99
2016-10-06T03:26:21.728Z,99.99
2016-10-06T03:27:21.707Z,99.99
2016-10-06T03:28:21.694Z,99.99
2016-10-06T03:29:21.674Z,99.99
2016-10-06T03:30:22.026Z,99.99
2016-10-06T03:31:21.988Z,99.99
2016-10-06T03:32:21.977Z,99.99
2016-10-06T03:33:21.644Z,99.99
2016-10-06T03:34:21.923Z,99.99
2016-10-06T03:35:21.579Z,99.99
2016-10-06T03:36:21.564Z,99.99
2016-10-06T03:37:21.548Z,99.99
2016-10-06T03:38:21.530Z,99.99
2016-10-06T03:39:21.846Z,99.99
2016-10-06T03:40:21.502Z,99.99
2016-10-06T03:41:21.480Z,99.99
2016-10-06T03:42:21.466Z,99.99
2016-10-06T03:43:21.450Z,99.99
2016-10-06T03:44:21.434Z,99.99
2016-10-06T03:45:21.414Z,99.99
2016-10-06T03:46:21.398Z,99.99
2016-10-06T03:47:21.380Z,99.99
2016-10-06T03:48:21.371Z,99.99
2016-10-06T03:49:21.346Z,99.99
2016-10-06T03:50:21.331Z,99.99
2016-10-06T03:51:21.315Z,99.99
2016-10-06T03:52:21.297Z,99.99
2016-10-06T03:53:21.297Z,99.99
2016-10-06T03:54:21.263Z,99.99
2016-10-06T03:55:21.248Z,99.99
2016-10-06T03:56:21.231Z,99.99
2016-10-06T03:57:21.532Z,99.99
2016-10-06T03:58:21.196Z,99.99
2016-10-06T03:59:21.188Z,99.99
2016-10-06T04:00:21.166Z,99.99
2016-10-06T04:01:21.148Z,99.99
2016-10-06T04:02:21.134Z,99.99
2016-10-06T04:03:21.120Z,99.99
2016-10-06T04:04:21.104Z,99.99
2016-10-06T04:05:21.401Z,99.99
2016-10-06T04:06:21.383Z,99.99
2016-10-06T04:07:21.054Z,99.99
2016-10-06T04:08:21.352Z,99.99
2016-10-06T04:09:21.037Z,99.99
2016-10-06T04:10:21.009Z,99.99
2016-10-06T04:11:20.991Z,99.99
2016-10-06T04:12:20.971Z,99.99
2016-10-06T04:13:21.156Z,99.99
2016-10-06T04:14:20.936Z,99.99
2016-10-06T04:15:20.927Z,99.99
2016-10-06T04:16:20.907Z,99.99
2016-10-06T04:17:20.884Z,99.99
2016-10-06T04:18:20.871Z,99.99
2016-10-06T04:19:20.857Z,99.99
2016-10-06T04:20:20.835Z,99.99
2016-10-06T04:21:20.826Z,99.99
2016-10-06T04:22:20.805Z,99.99
2016-10-06T04:23:20.794Z,99.99
2016-10-06T04:24:20.772Z,99.99
2016-10-06T04:25:20.758Z,99.99
2016-10-06T04:26:20.743Z,99.92
2016-10-06T04:27:20.725Z,99.99
2016-10-06T04:28:20.711Z,99.99
2016-10-06T04:29:20.690Z,99.99
2016-10-06T04:30:20.676Z,99.99
2016-10-06T04:31:20.674Z,99.73
2016-10-06T04:32:20.646Z,99.73
2016-10-06T04:33:20.944Z,99.83
2016-10-06T04:34:20.611Z,99.73
2016-10-06T04:35:20.595Z,99.35
2016-10-06T04:36:20.580Z,99.54
2016-10-06T04:37:20.566Z,99.35
2016-10-06T04:38:20.547Z,99.26
2016-10-06T04:39:20.529Z,98.69
2016-10-06T04:40:20.517Z,99.4
2016-10-06T04:41:20.824Z,99.21
2016-10-06T04:42:20.486Z,99.11
2016-10-06T04:43:20.465Z,99.11
2016-10-06T04:44:20.452Z,98.64
2016-10-06T04:45:20.440Z,98.36
2016-10-06T04:46:20.417Z,98.17
2016-10-06T04:47:20.406Z,98.45
2016-10-06T04:48:20.703Z,98.64
2016-10-06T04:49:20.688Z,98.07
2016-10-06T04:50:20.351Z,98.55
2016-10-06T04:51:20.339Z,98.26
2016-10-06T04:52:20.637Z,97.69
2016-10-06T04:53:20.307Z,97.31
2016-10-06T04:54:20.294Z,96.74
2016-10-06T04:55:20.273Z,96.93
2016-10-06T04:56:20.259Z,97.31
2016-10-06T04:57:20.260Z,96.65
2016-10-06T04:58:20.246Z,96.65
2016-10-06T04:59:20.424Z,96.74
2016-10-06T05:00:20.198Z,96.74
2016-10-06T05:01:20.181Z,96.84
2016-10-06T05:02:20.163Z,96.26
2016-10-06T05:03:20.147Z,96.17
2016-10-06T05:04:20.134Z,96.36
2016-10-06T05:05:20.124Z,95.89
2016-10-06T05:06:20.105Z,96.26
2016-10-06T05:07:20.086Z,96.74
2016-10-06T05:08:20.388Z,96.26
2016-10-06T05:09:20.056Z,95.32
2016-10-06T05:10:20.039Z,95.51
2016-10-06T05:11:20.027Z,95.36
2016-10-06T05:12:20.009Z,95.65
2016-10-06T05:13:19.993Z,95.27
2016-10-06T05:14:19.975Z,95.27
2016-10-06T05:15:19.959Z,95.17
2016-10-06T05:16:19.945Z,94.22
2016-10-06T05:17:19.931Z,95.17
2016-10-06T05:18:20.229Z,94.51
2016-10-06T05:19:20.210Z,94.22
2016-10-06T05:20:19.881Z,94.13
2016-10-06T05:21:19.866Z,94.42
2016-10-06T05:22:20.167Z,94.51
2016-10-06T05:23:19.832Z,93.55
2016-10-06T05:24:19.829Z,93.55
2016-10-06T05:25:20.125Z,93.55
2016-10-06T05:26:19.789Z,93.55
2016-10-06T05:27:19.776Z,92.99
2016-10-06T05:28:19.762Z,93.55
2016-10-06T05:29:19.742Z,92.99
2016-10-06T05:30:19.724Z,93.65
2016-10-06T05:31:19.711Z,93.08
2016-10-06T05:32:20.009Z,93.75
2016-10-06T05:33:19.682Z,93.37
2016-10-06T05:34:19.666Z,93.46
2016-10-06T05:35:19.654Z,93.37
2016-10-06T05:36:19.647Z,93.18
2016-10-06T05:37:19.619Z,93.46
2016-10-06T05:38:19.609Z,93.18
2016-10-06T05:39:19.591Z,93.55
2016-10-06T05:40:19.581Z,93.94
2016-10-06T05:41:19.557Z,92.99
2016-10-06T05:42:19.546Z,92.99
2016-10-06T05:43:19.526Z,93.18
2016-10-06T05:44:19.510Z,93.65
2016-10-06T05:45:19.496Z,93.46
2016-10-06T05:46:19.479Z,93.37
2016-10-06T05:47:19.474Z,93.18
2016-10-06T05:48:19.451Z,94.13
2016-10-06T05:49:19.434Z,93.46
2016-10-06T05:50:19.421Z,93.55
2016-10-06T05:51:19.406Z,93.84
2016-10-06T05:52:19.391Z,93.46
2016-10-06T05:53:19.378Z,93.18
2016-10-06T05:54:19.365Z,92.99
2016-10-06T05:55:19.346Z,92.99
2016-10-06T05:56:19.331Z,92.41
2016-10-06T05:57:19.314Z,92.41
2016-10-06T05:58:19.300Z,91.85
2016-10-06T05:59:19.286Z,92.51
2016-10-06T06:00:19.275Z,92.32
2016-10-06T06:01:19.255Z,93.08
2016-10-06T06:02:19.240Z,93.18
2016-10-06T06:03:19.228Z,93.08
2016-10-06T06:04:19.209Z,93.65
2016-10-06T06:05:19.197Z,92.99
2016-10-06T06:06:19.196Z,93.27
2016-10-06T06:07:19.165Z,92.56
2016-10-06T06:08:19.150Z,92.99
2016-10-06T06:09:19.135Z,93.18
2016-10-06T06:10:19.120Z,93.18
2016-10-06T06:11:19.105Z,92.7
2016-10-06T06:12:19.090Z,92.22
2016-10-06T06:13:19.074Z,92.41
2016-10-06T06:14:19.379Z,92.84
2016-10-06T06:15:19.047Z,93.13
2016-10-06T06:16:19.051Z,92.27
2016-10-06T06:17:19.022Z,92.94
2016-10-06T06:18:18.999Z,92.94
2016-10-06T06:19:18.984Z,93.04
2016-10-06T06:20:18.970Z,92.94
2016-10-06T06:21:18.958Z,93.04
2016-10-06T06:22:18.947Z,92.84
2016-10-06T06:23:18.957Z,93.23
2016-10-06T06:24:18.921Z,92.36
2016-10-06T06:25:18.900Z,92.75
2016-10-06T06:26:18.886Z,92.84
2016-10-06T06:27:18.871Z,92.65
2016-10-06T06:28:19.172Z,92.08
2016-10-06T06:29:18.841Z,92.18
2016-10-06T06:30:18.821Z,92.18
2016-10-06T06:31:18.813Z,92.27
2016-10-06T06:32:18.795Z,92.36
2016-10-06T06:33:18.781Z,93.13
2016-10-06T06:34:18.764Z,93.23
2016-10-06T06:35:18.748Z,92.56
2016-10-06T06:36:18.734Z,91.99
2016-10-06T06:37:18.722Z,91.8
2016-10-06T06:38:18.717Z,91.13
2016-10-06T06:39:18.687Z,91.42
2016-10-06T06:40:18.674Z,91.8
2016-10-06T06:41:18.658Z,92.27
2016-10-06T06:42:18.648Z,92.08
2016-10-06T06:43:18.643Z,92.08
2016-10-06T06:44:18.613Z,92.18
2016-10-06T06:45:18.599Z,91.99
2016-10-06T06:46:18.585Z,91.89
2016-10-06T06:47:18.572Z,92.08
2016-10-06T06:48:18.866Z,91.32
2016-10-06T06:49:18.541Z,91.89
2016-10-06T06:50:18.526Z,91.32
2016-10-06T06:51:18.831Z,91.51
2016-10-06T06:52:18.500Z,92.08
2016-10-06T06:53:18.481Z,91.7
2016-10-06T06:54:18.482Z,91.61
2016-10-06T06:55:18.451Z,91.51
2016-10-06T06:56:18.640Z,90.84
2016-10-06T06:57:18.426Z,90.18
2016-10-06T06:58:18.417Z,90.37
2016-10-06T06:59:18.605Z,90.28
2016-10-06T07:00:18.381Z,90.18
2016-10-06T07:01:18.366Z,90.28
2016-10-06T07:02:18.350Z,90.28
2016-10-06T07:03:18.343Z,90.94
2016-10-06T07:04:18.320Z,90.28
2016-10-06T07:05:18.311Z,90.32
2016-10-06T07:06:18.294Z,90.03
2016-10-06T07:07:18.280Z,89.56
2016-10-06T07:08:18.268Z,88.79
2016-10-06T07:09:18.250Z,89.47
2016-10-06T07:10:18.237Z,89.18
2016-10-06T07:11:18.222Z,89.47
2016-10-06T07:12:18.210Z,89.18
2016-10-06T07:13:18.196Z,89.37
2016-10-06T07:14:18.183Z,88.42
2016-10-06T07:15:18.166Z,87.75
2016-10-06T07:16:18.152Z,87.85
2016-10-06T07:17:18.140Z,88.51
2016-10-06T07:18:18.126Z,87.18
2016-10-06T07:19:18.109Z,87.37
2016-10-06T07:20:18.096Z,87.46
2016-10-06T07:21:18.079Z,87.85
2016-10-06T07:22:18.067Z,87.56
2016-10-06T07:23:18.054Z,87.94
2016-10-06T07:24:18.040Z,87.08
2016-10-06T07:25:18.024Z,87.37
2016-10-06T07:26:18.012Z,87.37
2016-10-06T07:27:18.005Z,87.37
2016-10-06T07:28:17.980Z,87.37
2016-10-06T07:29:17.969Z,87.08
2016-10-06T07:30:17.952Z,87.18
2016-10-06T07:31:17.941Z,86.7
2016-10-06T07:32:17.927Z,85.37
2016-10-06T07:33:17.935Z,85.56
2016-10-06T07:34:17.899Z,85.85
2016-10-06T07:35:17.886Z,86.61
2016-10-06T07:36:17.887Z,86.51
2016-10-06T07:37:17.857Z,86.61
2016-10-06T07:38:17.844Z,85.8
2016-10-06T07:39:18.147Z,85.85
2016-10-06T07:40:17.816Z,85.94
2016-10-06T07:41:17.802Z,86.32
2016-10-06T07:42:17.792Z,85.89
2016-10-06T07:43:17.777Z,85.66
2016-10-06T07:44:17.762Z,86.04
2016-10-06T07:45:17.747Z,85.37
2016-10-06T07:46:18.050Z,85.41
2016-10-06T07:47:18.035Z,85.51
2016-10-06T07:48:17.707Z,85.41
2016-10-06T07:49:17.691Z,85.6
2016-10-06T07:50:17.678Z,86.36
2016-10-06T07:51:17.661Z,85.51
2016-10-06T07:52:17.650Z,85.6
2016-10-06T07:53:17.950Z,85.99
2016-10-06T07:54:17.625Z,84.75
2016-10-06T07:55:17.607Z,84.75
2016-10-06T07:56:17.594Z,85.13
2016-10-06T07:57:17.585Z,84.65
2016-10-06T07:58:17.569Z,84.27
2016-10-06T07:59:17.553Z,85.32
2016-10-06T08:00:17.536Z,86.08
2016-10-06T08:01:17.526Z,85.89
2016-10-06T08:02:17.827Z,85.13
2016-10-06T08:03:17.500Z,85.8
2016-10-06T08:04:17.484Z,86.08
2016-10-06T08:05:17.472Z,84.36
2016-10-06T08:06:17.457Z,84.56
2016-10-06T08:07:17.443Z,84.75
2016-10-06T08:08:17.434Z,85.13
2016-10-06T08:09:17.420Z,85.32
2016-10-06T08:10:17.407Z,84.56
2016-10-06T08:11:17.387Z,84.75
2016-10-06T08:12:17.456Z,84.65
2016-10-06T08:13:17.367Z,84.08
2016-10-06T08:14:17.346Z,85.13
2016-10-06T08:15:17.331Z,84.84
2016-10-06T08:16:17.316Z,84.08
2016-10-06T08:17:17.303Z,83.61
2016-10-06T08:18:17.288Z,83.41
2016-10-06T08:19:17.592Z,83.03
2016-10-06T08:20:17.263Z,83.7
2016-10-06T08:21:17.251Z,84.08
2016-10-06T08:22:17.242Z,84.17
2016-10-06T08:23:17.221Z,84.94
2016-10-06T08:24:17.208Z,84.94
2016-10-06T08:25:17.196Z,84.46
2016-10-06T08:26:17.183Z,85.22
2016-10-06T08:27:17.171Z,84.12
2016-10-06T08:28:17.156Z,83.84
2016-10-06T08:29:17.140Z,82.79
2016-10-06T08:30:17.129Z,84.27
2016-10-06T08:31:17.116Z,84.94
2016-10-06T08:32:17.102Z,84.98
2016-10-06T08:33:17.089Z,84.08
2016-10-06T08:34:17.077Z,85.03
2016-10-06T08:35:17.067Z,84.6
2016-10-06T08:36:17.048Z,85.27
2016-10-06T08:37:17.041Z,83.65
2016-10-06T08:38:17.026Z,84.88
2016-10-06T08:39:17.008Z,85.17
2016-10-06T08:40:16.997Z,84.22
2016-10-06T08:41:16.985Z,84.41
2016-10-06T08:42:16.974Z,84.69
2016-10-06T08:43:16.958Z,84.22
2016-10-06T08:44:16.947Z,83.93
2016-10-06T08:45:17.248Z,84.6
2016-10-06T08:46:16.916Z,84.31
2016-10-06T08:47:16.901Z,84.41
2016-10-06T08:48:16.894Z,84.03
2016-10-06T08:49:16.877Z,84.03
2016-10-06T08:50:16.867Z,84.88
2016-10-06T08:51:16.855Z,85.17
2016-10-06T08:52:16.838Z,84.12
2016-10-06T08:53:16.829Z,84.6
2016-10-06T08:54:16.811Z,85.55
2016-10-06T08:55:16.800Z,84.69
2016-10-06T08:56:16.790Z,84.98
2016-10-06T08:57:16.772Z,85.17
2016-10-06T08:58:16.759Z,85.64
2016-10-06T08:59:16.752Z,84.98
2016-10-06T09:00:16.937Z,85.74
2016-10-06T09:01:16.738Z,85.74
2016-10-06T09:02:16.706Z,85.27
2016-10-06T09:03:16.696Z,85.08
2016-10-06T09:04:16.683Z,84.5
2016-10-06T09:05:16.671Z,85.27
2016-10-06T09:06:16.657Z,85.08
2016-10-06T09:07:16.647Z,85.64
2016-10-06T09:08:16.945Z,85.64
2016-10-06T09:09:16.621Z,85.88
2016-10-06T09:10:16.607Z,84.74
2016-10-06T09:11:16.597Z,84.98
2016-10-06T09:12:16.896Z,84.69
2016-10-06T09:13:16.566Z,85.02
2016-10-06T09:14:16.555Z,85.78
2016-10-06T09:15:16.545Z,85.78
2016-10-06T09:16:16.534Z,86.07
2016-10-06T09:17:16.517Z,85.31
2016-10-06T09:18:16.818Z,85.12
2016-10-06T09:19:16.492Z,85.64
2016-10-06T09:20:16.481Z,85.93
2016-10-06T09:21:16.483Z,85.84
2016-10-06T09:22:16.454Z,86.22
2016-10-06T09:23:16.442Z,85.88
2016-10-06T09:24:16.430Z,86.41
2016-10-06T09:25:16.729Z,86.51
2016-10-06T09:26:16.405Z,86.16
2016-10-06T09:27:16.389Z,86.6
2016-10-06T09:28:16.379Z,86.65
2016-10-06T09:29:16.368Z,86.16
2016-10-06T09:30:16.359Z,86.16
2016-10-06T09:31:16.654Z,87.07
2016-10-06T09:32:16.327Z,86.93
2016-10-06T09:33:16.315Z,86.93
2016-10-06T09:34:16.300Z,87.12
2016-10-06T09:35:16.291Z,87.6
2016-10-06T09:36:16.277Z,88.07
2016-10-06T09:37:16.265Z,88.03
2016-10-06T09:38:16.263Z,89.07
2016-10-06T09:39:16.238Z,88.7
2016-10-06T09:40:16.223Z,88.79
2016-10-06T09:41:16.214Z,88.36
2016-10-06T09:42:16.201Z,88.7
2016-10-06T09:43:16.190Z,89.75
2016-10-06T09:44:16.490Z,88.98
2016-10-06T09:45:16.169Z,88.41
2016-10-06T09:46:16.150Z,89.07
2016-10-06T09:47:16.143Z,89.55
2016-10-06T09:48:16.444Z,90.22
2016-10-06T09:49:16.107Z,90.12
2016-10-06T09:50:16.100Z,90.22
2016-10-06T09:51:16.086Z,89.84
2016-10-06T09:52:16.079Z,90.22
2016-10-06T09:53:16.058Z,90.6
2016-10-06T09:54:16.047Z,91.55
2016-10-06T09:55:16.037Z,91.74
2016-10-06T09:56:16.018Z,90.79
2016-10-06T09:57:16.010Z,91.36
2016-10-06T09:58:15.994Z,91.84
2016-10-06T09:59:15.978Z,91.27
2016-10-06T10:00:15.974Z,92.41
2016-10-06T10:01:15.954Z,92.69
2016-10-06T10:02:15.939Z,94.03
2016-10-06T10:03:15.946Z,93.08
2016-10-06T10:04:15.915Z,93.46
2016-10-06T10:05:15.907Z,93.27
2016-10-06T10:06:16.203Z,93.46
2016-10-06T10:07:16.190Z,94.13
2016-10-06T10:08:15.864Z,95.27
2016-10-06T10:09:15.850Z,95.27
2016-10-06T10:10:15.837Z,94.98
2016-10-06T10:11:15.819Z,96.22
2016-10-06T10:12:15.812Z,96.6
2016-10-06T10:13:15.798Z,97.17
2016-10-06T10:14:15.783Z,97.17
2016-10-06T10:15:15.771Z,97.36
2016-10-06T10:16:15.762Z,97.08
2016-10-06T10:17:15.776Z,96.51
2016-10-06T10:18:15.733Z,96.6
2016-10-06T10:19:15.721Z,97.17
2016-10-06T10:20:15.708Z,95.56
2016-10-06T10:21:15.692Z,95.94
2016-10-06T10:22:15.679Z,96.22
2016-10-06T10:23:15.982Z,95.65
2016-10-06T10:24:15.654Z,96.03
2016-10-06T10:25:15.641Z,95.27
2016-10-06T10:26:15.626Z,94.79
2016-10-06T10:27:15.613Z,94.89
2016-10-06T10:28:15.916Z,95.17
2016-10-06T10:29:15.591Z,94.98
2016-10-06T10:30:15.606Z,95.27
2016-10-06T10:31:15.566Z,95.56
2016-10-06T10:32:15.548Z,95.08
2016-10-06T10:33:15.851Z,95.17
2016-10-06T10:34:15.524Z,95.08
2016-10-06T10:35:15.507Z,95.46
2016-10-06T10:36:15.495Z,95.27
2016-10-06T10:37:15.482Z,94.6
2016-10-06T10:38:15.468Z,93.65
2016-10-06T10:39:15.457Z,94.22
2016-10-06T10:40:15.443Z,94.13
2016-10-06T10:41:15.427Z,94.03
2016-10-06T10:42:15.419Z,93.93
2016-10-06T10:43:15.402Z,93.55
2016-10-06T10:44:15.386Z,94.13
2016-10-06T10:45:15.376Z,93.84
2016-10-06T10:46:15.362Z,94.22
2016-10-06T10:47:15.382Z,93.65
2016-10-06T10:48:15.337Z,93.27
2016-10-06T10:49:15.322Z,93.74
2016-10-06T10:50:15.309Z,94.41
2016-10-06T10:51:15.297Z,94.03
2016-10-06T10:52:15.598Z,93.74
2016-10-06T10:53:15.269Z,93.37
2016-10-06T10:54:15.258Z,92.69
2016-10-06T10:55:15.563Z,92.98
2016-10-06T10:56:15.236Z,93.08
2016-10-06T10:57:15.216Z,93.27
2016-10-06T10:58:15.205Z,93.84
2016-10-06T10:59:15.557Z,93.17
2016-10-06T11:00:15.418Z,93.65
2016-10-06T11:01:15.166Z,93.7
2016-10-06T11:02:15.467Z,93.7
2016-10-06T11:03:15.139Z,93.32
2016-10-06T11:04:15.126Z,93.32
2016-10-06T11:05:15.113Z,92.93
2016-10-06T11:06:15.097Z,93.6
2016-10-06T11:07:15.087Z,92.93
2016-10-06T11:08:15.074Z,93.7
2016-10-06T11:09:15.061Z,93.41
2016-10-06T11:10:15.048Z,93.32
2016-10-06T11:11:15.037Z,92.84
2016-10-06T11:12:15.023Z,91.69
2016-10-06T11:13:15.009Z,91.6
2016-10-06T11:14:14.996Z,91.69
2016-10-06T11:15:14.981Z,91.69
2016-10-06T11:16:14.970Z,91.31
2016-10-06T11:17:14.957Z,91.69
2016-10-06T11:18:14.946Z,90.93
2016-10-06T11:19:14.934Z,92.55
2016-10-06T11:20:14.921Z,91.88
2016-10-06T11:21:14.908Z,92.55
2016-10-06T11:22:14.901Z,92.46
2016-10-06T11:23:14.882Z,92.08
2016-10-06T11:24:14.870Z,91.5
2016-10-06T11:25:14.856Z,91.22
2016-10-06T11:26:14.845Z,90.84
2016-10-06T11:27:15.149Z,90.74
2016-10-06T11:28:14.820Z,90.84
2016-10-06T11:29:14.804Z,91.13
2016-10-06T11:30:14.794Z,91.79
2016-10-06T11:31:14.781Z,91.69
2016-10-06T11:32:14.780Z,91.98
2016-10-06T11:33:14.756Z,91.5
2016-10-06T11:34:14.744Z,91.69
2016-10-06T11:35:14.729Z,91.88
2016-10-06T11:36:14.718Z,91.6
2016-10-06T11:37:14.714Z,92.46
2016-10-06T11:38:14.696Z,92.08
2016-10-06T11:39:14.682Z,92.93
2016-10-06T11:40:14.669Z,92.46
2016-10-06T11:41:14.969Z,91.74
2016-10-06T11:42:14.642Z,93.12
2016-10-06T11:43:14.631Z,93.03
2016-10-06T11:44:14.617Z,92.46
2016-10-06T11:45:14.605Z,91.69
2016-10-06T11:46:14.907Z,91.93
2016-10-06T11:47:14.588Z,92.27
2016-10-06T11:48:14.570Z,92.84
2016-10-06T11:49:14.555Z,92.27
2016-10-06T11:50:14.544Z,92.36
2016-10-06T11:51:14.532Z,91.6
2016-10-06T11:52:14.521Z,91.69
2016-10-06T11:53:14.507Z,92.74
2016-10-06T11:54:14.494Z,91.79
2016-10-06T11:55:14.480Z,93.22
2016-10-06T11:56:14.473Z,92.65
2016-10-06T11:57:14.455Z,92.22
2016-10-06T11:58:14.442Z,92.41
2016-10-06T11:59:14.433Z,91.93
2016-10-06T12:00:14.418Z,91.74
2016-10-06T12:01:14.720Z,91.74
2016-10-06T12:02:14.396Z,92.32
2016-10-06T12:03:14.700Z,92.41
2016-10-06T12:04:14.369Z,92.6
2016-10-06T12:05:14.364Z,92.41
2016-10-06T12:06:14.344Z,92.03
2016-10-06T12:07:14.336Z,92.88
2016-10-06T12:08:14.320Z,92.98
2016-10-06T12:09:14.308Z,93.36
2016-10-06T12:10:14.296Z,93.36
2016-10-06T12:11:14.281Z,93.27
2016-10-06T12:12:14.273Z,92.5
2016-10-06T12:13:14.260Z,91.55
2016-10-06T12:14:14.257Z,91.93
2016-10-06T12:15:14.234Z,92.12
2016-10-06T12:16:14.226Z,92.32
2016-10-06T12:17:14.217Z,92.98
2016-10-06T12:18:14.196Z,93.46
2016-10-06T12:19:14.184Z,93.08
2016-10-06T12:20:14.171Z,92.84
2016-10-06T12:21:14.160Z,93.22
2016-10-06T12:22:14.147Z,93.74
2016-10-06T12:23:14.138Z,93.27
2016-10-06T12:24:14.124Z,92.69
2016-10-06T12:25:14.111Z,92.79
2016-10-06T12:26:14.107Z,92.98
2016-10-06T12:27:14.085Z,93.65
2016-10-06T12:28:14.079Z,93.55
2016-10-06T12:29:14.065Z,93.55
2016-10-06T12:30:14.053Z,93.74
2016-10-06T12:31:14.041Z,93.36
2016-10-06T12:32:14.028Z,92.5
2016-10-06T12:33:14.017Z,92.6
2016-10-06T12:34:14.005Z,92.6
2016-10-06T12:35:13.991Z,92.41
2016-10-06T12:36:13.981Z,91.98
2016-10-06T12:37:14.282Z,91.12
2016-10-06T12:38:13.955Z,91.83
2016-10-06T12:39:13.946Z,92.41
2016-10-06T12:40:13.931Z,91.98
2016-10-06T12:41:13.918Z,91.41
2016-10-06T12:42:13.907Z,91.93
2016-10-06T12:43:13.893Z,91.88
2016-10-06T12:44:13.882Z,91.46
2016-10-06T12:45:13.868Z,91.64
2016-10-06T12:46:13.865Z,91.6
2016-10-06T12:47:13.846Z,91.02
2016-10-06T12:48:13.836Z,91.55
2016-10-06T12:49:13.826Z,92.36
2016-10-06T12:50:14.125Z,92.79
2016-10-06T12:51:13.802Z,91.78
2016-10-06T12:52:13.787Z,91.5
2016-10-06T12:53:13.779Z,92.03
2016-10-06T12:54:13.765Z,92.26